sensor_id;sensor_type;location;lat;lon;timestamp;temperature;humidity
37408;DHT22;24866;50.248;8.252;2022-09-16T00:00:20;13.00;99.90
37408;DHT22;24866;50.248;8.252;2022-09-16T00:02:52;13.00;99.90
37408;DHT22;24866;50.248;8.252;2022-09-16T00:05:22;13.00;99.90
37408;DHT22;24866;50.248;8.252;2022-09-16T00:07:52;12.90;99.90
37408;DHT22;24866;50.248;8.252;2022-09-16T00:10:23;12.90;99.90
37408;DHT22;24866;50.248;8.252;2022-09-16T00:12:53;12.90;99.90
37408;DHT22;24866;50.248;8.252;2022-09-16T00:15:22;13.00;99.90
37408;DHT22;24866;50.248;8.252;2022-09-16T00:17:54;12.90;99.90
37408;DHT22;24866;50.248;8.252;2022-09-16T00:20:24;13.00;99.90
37408;DHT22;24866;50.248;8.252;2022-09-16T00:22:54;13.00;99.90
37408;DHT22;24866;50.248;8.252;2022-09-16T00:25:23;12.90;99.90
37408;DHT22;24866;50.248;8.252;2022-09-16T00:27:53;13.00;99.90
37408;DHT22;24866;50.248;8.252;2022-09-16T00:30:23;12.90;99.90
37408;DHT22;24866;50.248;8.252;2022-09-16T00:32:55;12.90;99.90
37408;DHT22;24866;50.248;8.252;2022-09-16T00:35:24;12.90;99.90
37408;DHT22;24866;50.248;8.252;2022-09-16T00:37:54;12.90;99.90
37408;DHT22;24866;50.248;8.252;2022-09-16T00:40:24;12.80;99.90
37408;DHT22;24866;50.248;8.252;2022-09-16T00:42:54;12.90;99.90
37408;DHT22;24866;50.248;8.252;2022-09-16T00:45:25;12.80;99.90
37408;DHT22;24866;50.248;8.252;2022-09-16T00:48:03;12.80;99.90
37408;DHT22;24866;50.248;8.252;2022-09-16T00:50:36;12.80;99.90
37408;DHT22;24866;50.248;8.252;2022-09-16T00:53:11;12.80;99.90
37408;DHT22;24866;50.248;8.252;2022-09-16T00:55:44;12.80;99.90
37408;DHT22;24866;50.248;8.252;2022-09-16T00:58:19;12.70;99.90
37408;DHT22;24866;50.248;8.252;2022-09-16T01:00:52;12.70;99.90
37408;DHT22;24866;50.248;8.252;2022-09-16T01:03:24;12.70;99.90
37408;DHT22;24866;50.248;8.252;2022-09-16T01:05:54;12.70;99.90
37408;DHT22;24866;50.248;8.252;2022-09-16T01:08:24;12.70;99.90
37408;DHT22;24866;50.248;8.252;2022-09-16T01:10:54;12.70;99.90
37408;DHT22;24866;50.248;8.252;2022-09-16T01:13:24;12.70;99.90
37408;DHT22;24866;50.248;8.252;2022-09-16T01:15:58;12.70;99.90
37408;DHT22;24866;50.248;8.252;2022-09-16T01:18:37;12.70;99.90
37408;DHT22;24866;50.248;8.252;2022-09-16T01:21:21;12.70;99.90
37408;DHT22;24866;50.248;8.252;2022-09-16T01:24:23;12.70;99.90
37408;DHT22;24866;50.248;8.252;2022-09-16T01:30:54;12.60;99.90
37408;DHT22;24866;50.248;8.252;2022-09-16T01:33:35;12.60;99.90
37408;DHT22;24866;50.248;8.252;2022-09-16T01:36:16;12.60;99.90
37408;DHT22;24866;50.248;8.252;2022-09-16T01:38:58;12.60;99.90
37408;DHT22;24866;50.248;8.252;2022-09-16T01:41:39;12.50;99.90
37408;DHT22;24866;50.248;8.252;2022-09-16T01:44:18;12.50;99.90
37408;DHT22;24866;50.248;8.252;2022-09-16T01:46:58;12.50;99.90
37408;DHT22;24866;50.248;8.252;2022-09-16T01:49:36;12.70;99.90
37408;DHT22;24866;50.248;8.252;2022-09-16T01:52:17;12.70;99.90
37408;DHT22;24866;50.248;8.252;2022-09-16T01:54:51;12.50;99.90
37408;DHT22;24866;50.248;8.252;2022-09-16T01:57:26;12.40;99.90
37408;DHT22;24866;50.248;8.252;2022-09-16T02:00:03;12.70;99.90
37408;DHT22;24866;50.248;8.252;2022-09-16T02:02:36;12.50;99.90
37408;DHT22;24866;50.248;8.252;2022-09-16T02:05:09;12.50;99.90
37408;DHT22;24866;50.248;8.252;2022-09-16T02:07:46;12.40;99.90
37408;DHT22;24866;50.248;8.252;2022-09-16T02:10:21;12.30;99.90
37408;DHT22;24866;50.248;8.252;2022-09-16T02:12:54;12.40;99.90
37408;DHT22;24866;50.248;8.252;2022-09-16T02:15:27;12.30;99.90
37408;DHT22;24866;50.248;8.252;2022-09-16T02:18:04;12.30;99.90
37408;DHT22;24866;50.248;8.252;2022-09-16T02:20:38;12.30;99.90
37408;DHT22;24866;50.248;8.252;2022-09-16T02:23:14;12.20;99.90
37408;DHT22;24866;50.248;8.252;2022-09-16T02:25:46;12.20;99.90
37408;DHT22;24866;50.248;8.252;2022-09-16T02:28:20;12.20;99.90
37408;DHT22;24866;50.248;8.252;2022-09-16T02:30:55;12.20;99.90
37408;DHT22;24866;50.248;8.252;2022-09-16T02:33:28;12.30;99.90
37408;DHT22;24866;50.248;8.252;2022-09-16T02:36:02;12.20;99.90
37408;DHT22;24866;50.248;8.252;2022-09-16T02:38:37;12.20;99.90
37408;DHT22;24866;50.248;8.252;2022-09-16T02:41:09;12.20;99.90
37408;DHT22;24866;50.248;8.252;2022-09-16T02:43:42;12.20;99.90
37408;DHT22;24866;50.248;8.252;2022-09-16T02:46:18;12.20;99.90
37408;DHT22;24866;50.248;8.252;2022-09-16T02:49:02;12.20;99.90
37408;DHT22;24866;50.248;8.252;2022-09-16T02:51:45;12.10;99.90
37408;DHT22;24866;50.248;8.252;2022-09-16T02:54:21;12.10;99.90
37408;DHT22;24866;50.248;8.252;2022-09-16T02:56:55;12.00;99.90
37408;DHT22;24866;50.248;8.252;2022-09-16T02:59:25;12.00;99.90
37408;DHT22;24866;50.248;8.252;2022-09-16T03:01:55;12.10;99.90
37408;DHT22;24866;50.248;8.252;2022-09-16T03:04:28;12.10;99.90
37408;DHT22;24866;50.248;8.252;2022-09-16T03:06:58;12.10;99.90
37408;DHT22;24866;50.248;8.252;2022-09-16T03:09:28;12.10;99.90
37408;DHT22;24866;50.248;8.252;2022-09-16T03:12:14;12.10;99.90
37408;DHT22;24866;50.248;8.252;2022-09-16T03:15:20;12.00;99.90
37408;DHT22;24866;50.248;8.252;2022-09-16T03:18:18;12.00;99.90
37408;DHT22;24866;50.248;8.252;2022-09-16T03:20:59;12.00;99.90
37408;DHT22;24866;50.248;8.252;2022-09-16T03:23:42;12.00;99.90
37408;DHT22;24866;50.248;8.252;2022-09-16T03:26:21;12.10;99.90
37408;DHT22;24866;50.248;8.252;2022-09-16T03:29:01;12.10;99.90
37408;DHT22;24866;50.248;8.252;2022-09-16T03:31:36;12.10;99.90
37408;DHT22;24866;50.248;8.252;2022-09-16T03:34:10;12.10;99.90
37408;DHT22;24866;50.248;8.252;2022-09-16T03:36:48;12.10;99.90
37408;DHT22;24866;50.248;8.252;2022-09-16T03:39:20;12.10;99.90
37408;DHT22;24866;50.248;8.252;2022-09-16T03:41:51;12.10;99.90
37408;DHT22;24866;50.248;8.252;2022-09-16T03:44:30;12.10;99.90
37408;DHT22;24866;50.248;8.252;2022-09-16T03:47:01;12.10;99.90
37408;DHT22;24866;50.248;8.252;2022-09-16T03:49:30;12.10;99.90
37408;DHT22;24866;50.248;8.252;2022-09-16T03:52:02;12.10;99.90
37408;DHT22;24866;50.248;8.252;2022-09-16T03:54:33;12.10;99.90
37408;DHT22;24866;50.248;8.252;2022-09-16T03:57:04;12.00;99.90
37408;DHT22;24866;50.248;8.252;2022-09-16T03:59:34;12.00;99.90
37408;DHT22;24866;50.248;8.252;2022-09-16T04:02:04;12.10;99.90
37408;DHT22;24866;50.248;8.252;2022-09-16T04:04:34;12.10;99.90
37408;DHT22;24866;50.248;8.252;2022-09-16T04:07:05;12.10;99.90
37408;DHT22;24866;50.248;8.252;2022-09-16T04:09:35;12.10;99.90
37408;DHT22;24866;50.248;8.252;2022-09-16T04:12:06;12.20;99.90
37408;DHT22;24866;50.248;8.252;2022-09-16T04:14:36;12.20;99.90
37408;DHT22;24866;50.248;8.252;2022-09-16T04:17:06;12.10;99.90
37408;DHT22;24866;50.248;8.252;2022-09-16T04:19:36;12.00;99.90
37408;DHT22;24866;50.248;8.252;2022-09-16T04:22:07;12.10;99.90
37408;DHT22;24866;50.248;8.252;2022-09-16T04:24:37;12.00;99.90
37408;DHT22;24866;50.248;8.252;2022-09-16T04:27:07;12.00;99.90
37408;DHT22;24866;50.248;8.252;2022-09-16T04:29:37;12.00;99.90
37408;DHT22;24866;50.248;8.252;2022-09-16T04:32:07;12.00;99.90
37408;DHT22;24866;50.248;8.252;2022-09-16T04:34:37;12.20;99.90
37408;DHT22;24866;50.248;8.252;2022-09-16T04:37:09;12.20;99.90
37408;DHT22;24866;50.248;8.252;2022-09-16T04:39:39;12.20;99.90
37408;DHT22;24866;50.248;8.252;2022-09-16T04:42:09;12.10;99.90
37408;DHT22;24866;50.248;8.252;2022-09-16T04:44:40;12.20;99.90
37408;DHT22;24866;50.248;8.252;2022-09-16T04:47:10;12.30;99.90
37408;DHT22;24866;50.248;8.252;2022-09-16T04:49:40;12.40;99.90
37408;DHT22;24866;50.248;8.252;2022-09-16T04:52:11;12.40;99.90
37408;DHT22;24866;50.248;8.252;2022-09-16T04:54:41;12.40;99.90
37408;DHT22;24866;50.248;8.252;2022-09-16T04:57:11;12.50;99.90
37408;DHT22;24866;50.248;8.252;2022-09-16T04:59:41;12.50;99.90
37408;DHT22;24866;50.248;8.252;2022-09-16T05:02:11;12.40;99.90
37408;DHT22;24866;50.248;8.252;2022-09-16T05:04:41;12.50;99.90
37408;DHT22;24866;50.248;8.252;2022-09-16T05:07:12;12.40;99.90
37408;DHT22;24866;50.248;8.252;2022-09-16T05:09:42;12.40;99.90
37408;DHT22;24866;50.248;8.252;2022-09-16T05:12:12;12.20;99.90
37408;DHT22;24866;50.248;8.252;2022-09-16T05:14:42;12.10;99.90
37408;DHT22;24866;50.248;8.252;2022-09-16T05:17:12;11.90;99.90
37408;DHT22;24866;50.248;8.252;2022-09-16T05:19:41;11.90;99.90
37408;DHT22;24866;50.248;8.252;2022-09-16T05:22:13;11.90;99.90
37408;DHT22;24866;50.248;8.252;2022-09-16T05:24:43;11.90;99.90
37408;DHT22;24866;50.248;8.252;2022-09-16T05:27:13;12.00;99.90
37408;DHT22;24866;50.248;8.252;2022-09-16T05:29:43;11.80;99.90
37408;DHT22;24866;50.248;8.252;2022-09-16T05:32:13;11.80;99.90
37408;DHT22;24866;50.248;8.252;2022-09-16T05:34:43;11.80;99.90
37408;DHT22;24866;50.248;8.252;2022-09-16T05:37:14;11.70;99.90
37408;DHT22;24866;50.248;8.252;2022-09-16T05:39:44;11.70;99.90
37408;DHT22;24866;50.248;8.252;2022-09-16T05:42:14;11.70;99.90
37408;DHT22;24866;50.248;8.252;2022-09-16T05:44:44;11.80;99.90
37408;DHT22;24866;50.248;8.252;2022-09-16T05:47:14;11.80;99.90
37408;DHT22;24866;50.248;8.252;2022-09-16T05:49:44;11.80;99.90
37408;DHT22;24866;50.248;8.252;2022-09-16T05:52:15;11.80;99.90
37408;DHT22;24866;50.248;8.252;2022-09-16T05:54:45;11.90;99.90
37408;DHT22;24866;50.248;8.252;2022-09-16T05:57:15;11.80;99.90
37408;DHT22;24866;50.248;8.252;2022-09-16T05:59:45;11.90;99.90
37408;DHT22;24866;50.248;8.252;2022-09-16T06:02:15;11.90;99.90
37408;DHT22;24866;50.248;8.252;2022-09-16T06:04:54;11.80;99.90
37408;DHT22;24866;50.248;8.252;2022-09-16T06:07:25;11.70;99.90
37408;DHT22;24866;50.248;8.252;2022-09-16T06:09:55;11.70;99.90
37408;DHT22;24866;50.248;8.252;2022-09-16T06:12:24;11.70;99.90
37408;DHT22;24866;50.248;8.252;2022-09-16T06:14:54;11.70;99.90
37408;DHT22;24866;50.248;8.252;2022-09-16T06:17:24;11.70;99.90
37408;DHT22;24866;50.248;8.252;2022-09-16T06:19:55;11.70;99.90
37408;DHT22;24866;50.248;8.252;2022-09-16T06:22:29;11.80;99.90
37408;DHT22;24866;50.248;8.252;2022-09-16T06:24:59;11.80;99.90
37408;DHT22;24866;50.248;8.252;2022-09-16T06:27:30;11.90;99.90
37408;DHT22;24866;50.248;8.252;2022-09-16T06:30:00;12.00;99.90
37408;DHT22;24866;50.248;8.252;2022-09-16T06:32:30;12.00;99.90
37408;DHT22;24866;50.248;8.252;2022-09-16T06:35:00;12.10;99.90
37408;DHT22;24866;50.248;8.252;2022-09-16T06:37:31;12.10;99.90
37408;DHT22;24866;50.248;8.252;2022-09-16T06:40:02;12.10;99.90
37408;DHT22;24866;50.248;8.252;2022-09-16T06:42:31;12.10;99.90
37408;DHT22;24866;50.248;8.252;2022-09-16T06:45:01;12.20;99.90
37408;DHT22;24866;50.248;8.252;2022-09-16T06:47:32;12.20;99.90
37408;DHT22;24866;50.248;8.252;2022-09-16T06:50:02;12.30;99.90
37408;DHT22;24866;50.248;8.252;2022-09-16T06:52:34;12.40;99.90
37408;DHT22;24866;50.248;8.252;2022-09-16T06:55:04;12.60;99.90
37408;DHT22;24866;50.248;8.252;2022-09-16T06:57:34;12.60;99.90
37408;DHT22;24866;50.248;8.252;2022-09-16T07:00:05;12.60;99.90
37408;DHT22;24866;50.248;8.252;2022-09-16T07:02:36;12.70;99.90
37408;DHT22;24866;50.248;8.252;2022-09-16T07:05:06;12.70;99.90
37408;DHT22;24866;50.248;8.252;2022-09-16T07:07:38;12.70;99.90
37408;DHT22;24866;50.248;8.252;2022-09-16T07:10:08;12.70;99.90
37408;DHT22;24866;50.248;8.252;2022-09-16T07:12:38;12.80;99.90
37408;DHT22;24866;50.248;8.252;2022-09-16T07:15:09;12.80;99.90
37408;DHT22;24866;50.248;8.252;2022-09-16T07:17:39;12.80;99.90
37408;DHT22;24866;50.248;8.252;2022-09-16T07:20:09;12.80;99.90
37408;DHT22;24866;50.248;8.252;2022-09-16T07:22:41;12.90;99.90
37408;DHT22;24866;50.248;8.252;2022-09-16T07:25:11;12.90;99.90
37408;DHT22;24866;50.248;8.252;2022-09-16T07:27:40;12.90;99.90
37408;DHT22;24866;50.248;8.252;2022-09-16T07:30:11;13.00;99.90
37408;DHT22;24866;50.248;8.252;2022-09-16T07:32:41;12.90;99.90
37408;DHT22;24866;50.248;8.252;2022-09-16T07:35:11;12.80;99.90
37408;DHT22;24866;50.248;8.252;2022-09-16T07:37:43;12.70;99.90
37408;DHT22;24866;50.248;8.252;2022-09-16T07:40:13;12.80;99.90
37408;DHT22;24866;50.248;8.252;2022-09-16T07:42:43;12.80;99.90
37408;DHT22;24866;50.248;8.252;2022-09-16T07:45:13;12.90;99.90
37408;DHT22;24866;50.248;8.252;2022-09-16T07:47:48;13.20;99.90
37408;DHT22;24866;50.248;8.252;2022-09-16T07:50:18;13.40;99.90
37408;DHT22;24866;50.248;8.252;2022-09-16T07:52:53;13.60;99.90
37408;DHT22;24866;50.248;8.252;2022-09-16T07:55:22;13.50;99.90
37408;DHT22;24866;50.248;8.252;2022-09-16T07:57:52;13.60;99.90
37408;DHT22;24866;50.248;8.252;2022-09-16T08:00:22;13.70;99.90
37408;DHT22;24866;50.248;8.252;2022-09-16T08:02:56;13.80;99.90
37408;DHT22;24866;50.248;8.252;2022-09-16T08:05:26;13.80;99.90
37408;DHT22;24866;50.248;8.252;2022-09-16T08:07:58;14.00;99.90
37408;DHT22;24866;50.248;8.252;2022-09-16T08:10:27;13.90;99.90
37408;DHT22;24866;50.248;8.252;2022-09-16T08:12:57;14.10;99.90
37408;DHT22;24866;50.248;8.252;2022-09-16T08:15:27;14.10;99.90
37408;DHT22;24866;50.248;8.252;2022-09-16T08:17:57;14.10;99.90
37408;DHT22;24866;50.248;8.252;2022-09-16T08:20:27;14.00;99.90
37408;DHT22;24866;50.248;8.252;2022-09-16T08:22:58;13.80;99.90
37408;DHT22;24866;50.248;8.252;2022-09-16T08:25:28;13.70;99.90
37408;DHT22;24866;50.248;8.252;2022-09-16T08:27:58;13.60;99.90
37408;DHT22;24866;50.248;8.252;2022-09-16T08:30:29;13.80;99.90
37408;DHT22;24866;50.248;8.252;2022-09-16T08:32:59;13.90;99.90
37408;DHT22;24866;50.248;8.252;2022-09-16T08:35:29;14.20;99.90
37408;DHT22;24866;50.248;8.252;2022-09-16T08:38:01;14.20;99.90
37408;DHT22;24866;50.248;8.252;2022-09-16T08:40:34;14.00;99.90
37408;DHT22;24866;50.248;8.252;2022-09-16T08:43:09;14.00;99.90
37408;DHT22;24866;50.248;8.252;2022-09-16T08:45:47;13.90;99.90
37408;DHT22;24866;50.248;8.252;2022-09-16T08:48:28;13.90;99.90
37408;DHT22;24866;50.248;8.252;2022-09-16T08:51:00;13.90;99.90
37408;DHT22;24866;50.248;8.252;2022-09-16T08:53:36;13.90;99.90
37408;DHT22;24866;50.248;8.252;2022-09-16T08:56:12;13.90;99.90
37408;DHT22;24866;50.248;8.252;2022-09-16T08:58:44;14.00;99.90
37408;DHT22;24866;50.248;8.252;2022-09-16T09:01:22;14.10;99.90
37408;DHT22;24866;50.248;8.252;2022-09-16T09:03:55;14.00;99.90
37408;DHT22;24866;50.248;8.252;2022-09-16T09:06:41;14.00;99.90
37408;DHT22;24866;50.248;8.252;2022-09-16T09:09:25;14.00;99.90
37408;DHT22;24866;50.248;8.252;2022-09-16T09:12:06;14.10;99.90
37408;DHT22;24866;50.248;8.252;2022-09-16T09:14:48;14.10;99.90
37408;DHT22;24866;50.248;8.252;2022-09-16T09:17:29;14.20;99.90
37408;DHT22;24866;50.248;8.252;2022-09-16T09:20:11;14.30;99.90
37408;DHT22;24866;50.248;8.252;2022-09-16T09:22:57;14.20;99.90
37408;DHT22;24866;50.248;8.252;2022-09-16T09:25:38;14.30;99.90
37408;DHT22;24866;50.248;8.252;2022-09-16T09:28:20;14.20;99.90
37408;DHT22;24866;50.248;8.252;2022-09-16T09:30:58;14.20;99.90
37408;DHT22;24866;50.248;8.252;2022-09-16T09:33:39;14.10;99.90
37408;DHT22;24866;50.248;8.252;2022-09-16T09:36:22;14.10;99.90
37408;DHT22;24866;50.248;8.252;2022-09-16T09:39:26;14.20;99.90
37408;DHT22;24866;50.248;8.252;2022-09-16T09:42:09;14.20;99.90
37408;DHT22;24866;50.248;8.252;2022-09-16T09:44:50;14.10;99.90
37408;DHT22;24866;50.248;8.252;2022-09-16T09:47:24;14.30;99.90
37408;DHT22;24866;50.248;8.252;2022-09-16T09:49:57;14.20;99.90
37408;DHT22;24866;50.248;8.252;2022-09-16T09:52:35;14.30;99.90
37408;DHT22;24866;50.248;8.252;2022-09-16T09:55:14;14.50;99.90
37408;DHT22;24866;50.248;8.252;2022-09-16T09:57:56;14.50;99.90
37408;DHT22;24866;50.248;8.252;2022-09-16T10:00:29;14.50;99.90
37408;DHT22;24866;50.248;8.252;2022-09-16T10:03:05;14.30;99.90
37408;DHT22;24866;50.248;8.252;2022-09-16T10:05:35;14.40;99.90
37408;DHT22;24866;50.248;8.252;2022-09-16T10:08:14;14.40;99.90
37408;DHT22;24866;50.248;8.252;2022-09-16T10:10:48;14.60;99.90
37408;DHT22;24866;50.248;8.252;2022-09-16T10:13:21;15.00;99.90
37408;DHT22;24866;50.248;8.252;2022-09-16T10:15:53;15.20;99.90
37408;DHT22;24866;50.248;8.252;2022-09-16T10:18:25;14.90;99.90
37408;DHT22;24866;50.248;8.252;2022-09-16T10:21:02;14.60;99.90
37408;DHT22;24866;50.248;8.252;2022-09-16T10:23:33;14.60;99.90
37408;DHT22;24866;50.248;8.252;2022-09-16T10:26:13;14.90;99.90
37408;DHT22;24866;50.248;8.252;2022-09-16T10:29:00;15.00;99.90
37408;DHT22;24866;50.248;8.252;2022-09-16T10:31:35;15.50;99.90
37408;DHT22;24866;50.248;8.252;2022-09-16T10:34:17;15.70;99.90
37408;DHT22;24866;50.248;8.252;2022-09-16T10:36:58;16.20;99.90
37408;DHT22;24866;50.248;8.252;2022-09-16T10:39:29;16.20;99.90
37408;DHT22;24866;50.248;8.252;2022-09-16T10:42:01;16.10;99.90
37408;DHT22;24866;50.248;8.252;2022-09-16T10:44:33;15.60;99.90
37408;DHT22;24866;50.248;8.252;2022-09-16T10:47:15;15.30;99.90
37408;DHT22;24866;50.248;8.252;2022-09-16T10:49:49;15.20;99.90
37408;DHT22;24866;50.248;8.252;2022-09-16T10:52:21;15.20;99.90
37408;DHT22;24866;50.248;8.252;2022-09-16T10:54:51;15.20;99.90
37408;DHT22;24866;50.248;8.252;2022-09-16T10:57:25;14.80;99.90
37408;DHT22;24866;50.248;8.252;2022-09-16T11:00:09;14.30;99.90
37408;DHT22;24866;50.248;8.252;2022-09-16T11:05:51;13.60;99.90
37408;DHT22;24866;50.248;8.252;2022-09-16T11:08:42;13.50;99.90
37408;DHT22;24866;50.248;8.252;2022-09-16T11:11:33;13.80;99.90
37408;DHT22;24866;50.248;8.252;2022-09-16T11:14:15;14.00;99.90
37408;DHT22;24866;50.248;8.252;2022-09-16T11:16:58;14.60;99.90
37408;DHT22;24866;50.248;8.252;2022-09-16T11:19:37;14.50;99.90
37408;DHT22;24866;50.248;8.252;2022-09-16T11:22:18;14.30;99.90
37408;DHT22;24866;50.248;8.252;2022-09-16T11:25:19;14.30;99.90
37408;DHT22;24866;50.248;8.252;2022-09-16T11:27:57;14.10;99.90
37408;DHT22;24866;50.248;8.252;2022-09-16T11:30:34;13.90;99.90
37408;DHT22;24866;50.248;8.252;2022-09-16T11:33:15;13.70;99.90
37408;DHT22;24866;50.248;8.252;2022-09-16T11:39:02;13.80;99.90
37408;DHT22;24866;50.248;8.252;2022-09-16T11:41:40;13.70;99.90
37408;DHT22;24866;50.248;8.252;2022-09-16T11:44:23;13.70;99.90
37408;DHT22;24866;50.248;8.252;2022-09-16T11:47:06;13.80;99.90
37408;DHT22;24866;50.248;8.252;2022-09-16T11:49:51;13.80;99.90
37408;DHT22;24866;50.248;8.252;2022-09-16T11:52:36;13.70;99.90
37408;DHT22;24866;50.248;8.252;2022-09-16T11:55:26;13.60;99.90
37408;DHT22;24866;50.248;8.252;2022-09-16T11:57:59;13.70;99.90
37408;DHT22;24866;50.248;8.252;2022-09-16T12:00:32;14.10;99.90
37408;DHT22;24866;50.248;8.252;2022-09-16T12:03:09;14.50;99.90
37408;DHT22;24866;50.248;8.252;2022-09-16T12:05:45;15.10;99.90
37408;DHT22;24866;50.248;8.252;2022-09-16T12:08:25;15.40;99.90
37408;DHT22;24866;50.248;8.252;2022-09-16T12:10:59;15.10;99.90
37408;DHT22;24866;50.248;8.252;2022-09-16T12:13:33;15.40;99.90
37408;DHT22;24866;50.248;8.252;2022-09-16T12:16:07;15.40;99.90
37408;DHT22;24866;50.248;8.252;2022-09-16T12:18:41;15.70;99.90
37408;DHT22;24866;50.248;8.252;2022-09-16T12:21:21;15.70;99.90
37408;DHT22;24866;50.248;8.252;2022-09-16T12:23:58;15.60;99.90
37408;DHT22;24866;50.248;8.252;2022-09-16T12:26:32;15.90;99.90
37408;DHT22;24866;50.248;8.252;2022-09-16T12:29:08;16.10;99.90
37408;DHT22;24866;50.248;8.252;2022-09-16T12:31:46;16.00;99.90
37408;DHT22;24866;50.248;8.252;2022-09-16T12:34:20;16.00;99.90
37408;DHT22;24866;50.248;8.252;2022-09-16T12:36:58;16.10;99.90
37408;DHT22;24866;50.248;8.252;2022-09-16T12:39:29;16.40;99.90
37408;DHT22;24866;50.248;8.252;2022-09-16T12:45:32;17.10;99.90
37408;DHT22;24866;50.248;8.252;2022-09-16T12:48:22;16.00;99.90
37408;DHT22;24866;50.248;8.252;2022-09-16T12:51:18;16.00;99.90
37408;DHT22;24866;50.248;8.252;2022-09-16T12:54:18;16.20;99.90
37408;DHT22;24866;50.248;8.252;2022-09-16T12:57:16;15.90;99.90
37408;DHT22;24866;50.248;8.252;2022-09-16T12:59:59;16.30;99.90
37408;DHT22;24866;50.248;8.252;2022-09-16T13:02:34;16.50;99.90
37408;DHT22;24866;50.248;8.252;2022-09-16T13:05:12;16.40;99.90
37408;DHT22;24866;50.248;8.252;2022-09-16T13:07:49;16.60;99.90
37408;DHT22;24866;50.248;8.252;2022-09-16T13:10:28;16.40;99.90
37408;DHT22;24866;50.248;8.252;2022-09-16T13:13:01;16.60;99.90
37408;DHT22;24866;50.248;8.252;2022-09-16T13:15:32;16.80;99.90
37408;DHT22;24866;50.248;8.252;2022-09-16T13:18:08;16.70;1.00
37408;DHT22;24866;50.248;8.252;2022-09-16T13:20:40;16.60;99.90
37408;DHT22;24866;50.248;8.252;2022-09-16T13:23:13;16.10;99.90
37408;DHT22;24866;50.248;8.252;2022-09-16T13:25:49;15.70;99.90
37408;DHT22;24866;50.248;8.252;2022-09-16T13:28:33;15.40;99.90
37408;DHT22;24866;50.248;8.252;2022-09-16T13:31:19;15.60;99.90
37408;DHT22;24866;50.248;8.252;2022-09-16T13:34:02;16.10;99.90
37408;DHT22;24866;50.248;8.252;2022-09-16T13:36:33;16.20;1.00
37408;DHT22;24866;50.248;8.252;2022-09-16T13:39:05;16.60;1.00
37408;DHT22;24866;50.248;8.252;2022-09-16T13:41:38;17.00;1.00
37408;DHT22;24866;50.248;8.252;2022-09-16T13:44:38;17.20;21.10
37408;DHT22;24866;50.248;8.252;2022-09-16T13:47:14;17.50;99.90
37408;DHT22;24866;50.248;8.252;2022-09-16T13:49:48;16.70;1.00
37408;DHT22;24866;50.248;8.252;2022-09-16T13:52:20;16.60;1.00
37408;DHT22;24866;50.248;8.252;2022-09-16T13:54:54;16.40;1.00
37408;DHT22;24866;50.248;8.252;2022-09-16T13:57:38;16.50;1.00
37408;DHT22;24866;50.248;8.252;2022-09-16T14:00:13;16.40;50.50
37408;DHT22;24866;50.248;8.252;2022-09-16T14:03:14;16.50;99.90
37408;DHT22;24866;50.248;8.252;2022-09-16T14:06:39;16.20;1.00
37408;DHT22;24866;50.248;8.252;2022-09-16T14:09:26;16.00;99.90
37408;DHT22;24866;50.248;8.252;2022-09-16T14:12:03;16.10;1.00
37408;DHT22;24866;50.248;8.252;2022-09-16T14:14:37;15.90;1.00
37408;DHT22;24866;50.248;8.252;2022-09-16T14:17:15;16.30;99.90
37408;DHT22;24866;50.248;8.252;2022-09-16T14:19:48;16.50;1.00
37408;DHT22;24866;50.248;8.252;2022-09-16T14:22:20;16.30;1.00
37408;DHT22;24866;50.248;8.252;2022-09-16T14:24:53;16.60;1.00
37408;DHT22;24866;50.248;8.252;2022-09-16T14:27:27;16.20;99.90
37408;DHT22;24866;50.248;8.252;2022-09-16T14:30:00;16.40;1.00
37408;DHT22;24866;50.248;8.252;2022-09-16T14:32:32;15.90;99.90
37408;DHT22;24866;50.248;8.252;2022-09-16T14:35:08;15.90;52.30
37408;DHT22;24866;50.248;8.252;2022-09-16T14:37:39;15.80;99.90
37408;DHT22;24866;50.248;8.252;2022-09-16T14:40:13;15.20;99.90
37408;DHT22;24866;50.248;8.252;2022-09-16T14:42:48;14.70;99.90
37408;DHT22;24866;50.248;8.252;2022-09-16T14:45:21;14.30;99.90
37408;DHT22;24866;50.248;8.252;2022-09-16T14:47:52;13.90;99.90
37408;DHT22;24866;50.248;8.252;2022-09-16T14:50:26;13.70;99.90
37408;DHT22;24866;50.248;8.252;2022-09-16T14:52:57;13.20;99.90
37408;DHT22;24866;50.248;8.252;2022-09-16T14:55:29;13.00;99.90
37408;DHT22;24866;50.248;8.252;2022-09-16T14:58:00;13.00;99.90
37408;DHT22;24866;50.248;8.252;2022-09-16T15:00:34;12.80;99.90
37408;DHT22;24866;50.248;8.252;2022-09-16T15:03:11;12.70;99.90
37408;DHT22;24866;50.248;8.252;2022-09-16T15:05:45;12.70;99.90
37408;DHT22;24866;50.248;8.252;2022-09-16T15:08:18;12.90;99.90
37408;DHT22;24866;50.248;8.252;2022-09-16T15:10:51;12.60;99.90
37408;DHT22;24866;50.248;8.252;2022-09-16T15:13:22;12.60;99.90
37408;DHT22;24866;50.248;8.252;2022-09-16T15:15:56;12.70;99.90
37408;DHT22;24866;50.248;8.252;2022-09-16T15:18:28;12.70;99.90
37408;DHT22;24866;50.248;8.252;2022-09-16T15:21:05;12.60;99.90
37408;DHT22;24866;50.248;8.252;2022-09-16T15:23:37;12.60;99.90
37408;DHT22;24866;50.248;8.252;2022-09-16T15:26:12;12.70;99.90
37408;DHT22;24866;50.248;8.252;2022-09-16T15:28:57;12.60;99.90
37408;DHT22;24866;50.248;8.252;2022-09-16T15:31:33;12.80;99.90
37408;DHT22;24866;50.248;8.252;2022-09-16T15:34:18;12.80;99.90
37408;DHT22;24866;50.248;8.252;2022-09-16T15:36:50;13.00;99.90
37408;DHT22;24866;50.248;8.252;2022-09-16T15:39:23;13.60;99.90
37408;DHT22;24866;50.248;8.252;2022-09-16T15:42:09;13.40;99.90
37408;DHT22;24866;50.248;8.252;2022-09-16T15:44:45;14.00;99.90
37408;DHT22;24866;50.248;8.252;2022-09-16T15:47:20;14.70;99.90
37408;DHT22;24866;50.248;8.252;2022-09-16T15:49:57;14.80;99.90
37408;DHT22;24866;50.248;8.252;2022-09-16T15:52:33;14.30;99.90
37408;DHT22;24866;50.248;8.252;2022-09-16T15:55:05;14.00;99.90
37408;DHT22;24866;50.248;8.252;2022-09-16T15:57:38;13.60;99.90
37408;DHT22;24866;50.248;8.252;2022-09-16T16:00:12;13.70;99.90
37408;DHT22;24866;50.248;8.252;2022-09-16T16:02:48;13.60;99.90
37408;DHT22;24866;50.248;8.252;2022-09-16T16:05:23;13.50;99.90
37408;DHT22;24866;50.248;8.252;2022-09-16T16:07:55;13.60;99.90
37408;DHT22;24866;50.248;8.252;2022-09-16T16:10:27;13.50;99.90
37408;DHT22;24866;50.248;8.252;2022-09-16T16:12:59;13.40;99.90
37408;DHT22;24866;50.248;8.252;2022-09-16T16:15:32;13.50;99.90
37408;DHT22;24866;50.248;8.252;2022-09-16T16:18:05;13.50;99.90
37408;DHT22;24866;50.248;8.252;2022-09-16T16:20:36;13.70;99.90
37408;DHT22;24866;50.248;8.252;2022-09-16T16:23:07;14.00;99.90
37408;DHT22;24866;50.248;8.252;2022-09-16T16:25:40;13.70;99.90
37408;DHT22;24866;50.248;8.252;2022-09-16T16:28:10;13.90;99.90
37408;DHT22;24866;50.248;8.252;2022-09-16T16:30:40;13.60;99.90
37408;DHT22;24866;50.248;8.252;2022-09-16T16:33:11;13.70;99.90